Decoded Metar for PASD (SAND POINT in AK, USA) (IATA:SDP) | Meteo·Mobile Aviation Weather
aviador You're here:

PASD Decoded Metar

SAND POINT in AK, USA
Report Time2018-10-19 08:56:00
UTC Time2018-10-19 09:28:41
Flight Rules vfr VFR
Wind280° at 07 kt
W.Decomp.*RWY 31: 4.9 kt HW 4.9 kt LCW
W.Rank280° ranks 20
Current wind is below 280° avg. (7.9)
Visibility9999 m
Phenomena:N/A
Clouds:N/A
Expected CloudBase > 1,600 ft AGL from Temp-Dew spread
CeilingNone
Temp06°C (ISA -9)
Dew Point02°C (76% RH)
AAT1.8°C
QNH1001 hPa
Density Alt-551 ft
Elevation23 ft
Report Wrong Elevation
Raw Report
PASD 190856Z AUTO 28007KT 10SM CLR 06/02 A2957 RMK AO2 SLP014
6//// T00610022 401060061 56007 PNO $=

Extra information for PASD:More info

Metar Taf Metar & Taf Last 4 Metars F.Rules Stats Wind Profile Meteogram Temp Stats Airport Information Weather charts Add Link Nearby VenuesMetar ALERT Operation Metar Decoded Social comments

AIRNAV info for PASD